Time;durP1;ratioP1;P1;durP2;ratioP2;P2;SDS_P1;SDS_P2;PMS_P1;PMS_P2;Temp;Humidity;BMP_temperature;BMP_pressure;BME280_temperature;BME280_humidity;BME280_pressure;Samples;Min_cycle;Max_cycle;Signal;HPM_P1;HPM_P2
2023/02/03 00:01:40;;;;;;;;;;;2.80;81.80;;;;;;5024900;28;82108;-38
2023/02/03 00:04:06;;;;;;;;;;;2.80;81.80;;;;;;5025069;28;82409;-38
2023/02/03 00:06:32;;;;;;;;;;;2.70;81.80;;;;;;5025246;28;82851;-37
2023/02/03 00:08:58;;;;;;;;;;;2.80;81.90;;;;;;5028108;28;82575;-38
2023/02/03 00:11:24;;;;;;;;;;;2.80;81.80;;;;;;5028812;28;82760;-38
2023/02/03 00:13:49;;;;;;;;;;;2.80;81.90;;;;;;5030852;28;84687;-37
2023/02/03 00:16:15;;;;;;;;;;;2.80;81.90;;;;;;5028186;28;82346;-37
2023/02/03 00:18:40;;;;;;;;;;;2.80;81.80;;;;;;5027420;28;84801;-38
2023/02/03 00:21:06;;;;;;;;;;;2.80;81.80;;;;;;5028171;28;82112;-38
2023/02/03 00:23:32;;;;;;;;;;;2.80;81.80;;;;;;5028049;28;82938;-37
2023/02/03 00:26:05;;;;;;;;;;;2.80;81.80;;;;;;5027821;28;84364;-37
2023/02/03 00:28:30;;;;;;;;;;;2.80;81.70;;;;;;5027968;28;82534;-38
2023/02/03 00:30:56;;;;;;;;;;;2.80;81.70;;;;;;5027847;28;83637;-38
2023/02/03 00:33:21;;;;;;;;;;;2.80;81.80;;;;;;5027995;28;84657;-38
2023/02/03 00:35:48;;;;;;;;;;;2.80;81.70;;;;;;5031073;28;81190;-38
2023/02/03 00:38:14;;;;;;;;;;;2.80;81.80;;;;;;5027620;28;84482;-38
2023/02/03 00:40:39;;;;;;;;;;;2.80;81.80;;;;;;5027737;28;81893;-38
2023/02/03 00:43:05;;;;;;;;;;;2.80;81.80;;;;;;5027508;28;82932;-37
2023/02/03 00:45:30;;;;;;;;;;;2.80;81.80;;;;;;5027254;28;85136;-38
2023/02/03 00:47:56;;;;;;;;;;;2.80;81.80;;;;;;5027774;28;81936;-38
2023/02/03 00:50:21;;;;;;;;;;;2.80;81.80;;;;;;5027690;28;83978;-38
2023/02/03 00:52:47;;;;;;;;;;;2.70;81.70;;;;;;5027488;28;82078;-38
2023/02/03 00:55:12;;;;;;;;;;;2.80;81.70;;;;;;5030228;28;82139;-38
2023/02/03 00:57:38;;;;;;;;;;;2.80;81.50;;;;;;5027456;28;84396;-38
2023/02/03 01:00:03;;;;;;;;;;;2.70;81.60;;;;;;5027781;28;81411;-38
2023/02/03 01:02:29;;;;;;;;;;;2.70;81.60;;;;;;5027367;28;83578;-38
2023/02/03 01:04:54;;;;;;;;;;;2.70;81.60;;;;;;5026803;28;85104;-38
2023/02/03 01:07:20;;;;;;;;;;;2.70;81.50;;;;;;5026675;28;82916;-38
2023/02/03 01:09:45;;;;;;;;;;;2.70;81.70;;;;;;5027314;28;83227;-38
2023/02/03 01:12:11;;;;;;;;;;;2.70;81.70;;;;;;5027081;28;83537;-38
2023/02/03 01:14:36;;;;;;;;;;;2.70;81.50;;;;;;5027381;28;82171;-38
2023/02/03 01:17:02;;;;;;;;;;;2.70;81.50;;;;;;5029722;28;83698;-38
2023/02/03 01:19:27;;;;;;;;;;;2.70;81.60;;;;;;5027086;28;82149;-38
2023/02/03 01:21:53;;;;;;;;;;;2.70;81.60;;;;;;5027285;28;84059;-38
2023/02/03 01:24:18;;;;;;;;;;;2.70;81.50;;;;;;5027337;28;83660;-38
2023/02/03 01:26:44;;;;;;;;;;;2.70;81.60;;;;;;5027044;28;82165;-38
2023/02/03 01:29:09;;;;;;;;;;;2.70;81.60;;;;;;5027145;28;83949;-38
2023/02/03 01:31:38;;;;;;;;;;;2.70;81.60;;;;;;5026190;28;84633;-38
2023/02/03 01:34:05;;;;;;;;;;;2.70;81.60;;;;;;5026919;28;81954;-38
2023/02/03 01:36:31;;;;;;;;;;;2.70;81.60;;;;;;5027008;28;83832;-38
2023/02/03 01:38:56;;;;;;;;;;;2.70;81.60;;;;;;5029798;28;82358;-38
2023/02/03 01:41:23;;;;;;;;;;;2.70;81.60;;;;;;5027033;28;83839;-38
2023/02/03 01:43:50;;;;;;;;;;;2.70;81.70;;;;;;5026409;28;84540;-38
2023/02/03 01:46:31;;;;;;;;;;;2.70;81.70;;;;;;5026836;28;83225;-37
2023/02/03 01:49:08;;;;;;;;;;;2.70;81.60;;;;;;5027256;28;83848;-38
2023/02/03 01:51:34;;;;;;;;;;;2.70;81.60;;;;;;5026438;28;84489;-37
2023/02/03 01:54:00;;;;;;;;;;;2.70;81.70;;;;;;5026693;28;81859;-38
2023/02/03 01:56:27;;;;;;;;;;;2.60;81.70;;;;;;5025921;28;84017;-38
2023/02/03 01:58:52;;;;;;;;;;;2.60;81.80;;;;;;5026234;28;84515;-37
2023/02/03 02:01:18;;;;;;;;;;;2.60;81.60;;;;;;5029251;28;81892;-38
2023/02/03 02:03:47;;;;;;;;;;;2.60;81.60;;;;;;5026157;28;84308;-37
2023/02/03 02:06:13;;;;;;;;;;;2.70;81.60;;;;;;5025881;28;81989;-37
2023/02/03 02:08:40;;;;;;;;;;;2.70;81.60;;;;;;5026346;28;84107;-37
2023/02/03 02:11:05;;;;;;;;;;;2.60;81.60;;;;;;5026071;28;84587;-38
2023/02/03 02:13:33;;;;;;;;;;;2.60;81.70;;;;;;5026711;28;81080;-38
2023/02/03 02:16:15;;;;;;;;;;;2.60;81.60;;;;;;5026145;28;82879;-38
2023/02/03 02:18:41;;;;;;;;;;;2.60;81.60;;;;;;5026140;28;83967;-38
2023/02/03 02:21:15;;;;;;;;;;;2.60;81.60;;;;;;5025623;28;83031;-37
2023/02/03 02:23:46;;;;;;;;;;;2.60;81.60;;;;;;5028547;28;84824;-37
2023/02/03 02:26:27;;;;;;;;;;;2.60;81.60;;;;;;5026183;28;82343;-38
2023/02/03 02:28:55;;;;;;;;;;;2.60;81.60;;;;;;5025778;28;84202;-37
2023/02/03 02:31:39;;;;;;;;;;;2.60;81.50;;;;;;5025502;28;84273;-38
2023/02/03 02:34:10;;;;;;;;;;;2.60;81.50;;;;;;5025766;28;82444;-38
2023/02/03 02:36:48;;;;;;;;;;;2.60;81.50;;;;;;5026423;28;82439;-38
2023/02/03 02:39:20;;;;;;;;;;;2.60;81.50;;;;;;5026199;28;84010;-38
2023/02/03 02:41:48;;;;;;;;;;;2.60;81.40;;;;;;5026108;28;81966;-37
2023/02/03 02:44:16;;;;;;;;;;;2.60;81.50;;;;;;5028302;28;86054;-38
2023/02/03 02:46:45;;;;;;;;;;;2.60;81.50;;;;;;5024914;28;82687;-38
2023/02/03 02:49:13;;;;;;;;;;;2.60;81.50;;;;;;5025838;28;84609;-38
2023/02/03 02:51:40;;;;;;;;;;;2.50;81.40;;;;;;5025569;28;84396;-38
2023/02/03 02:54:06;;;;;;;;;;;2.60;81.50;;;;;;5026093;28;82738;-38
2023/02/03 02:56:33;;;;;;;;;;;2.60;81.50;;;;;;5025729;28;83869;-38
2023/02/03 02:59:00;;;;;;;;;;;2.60;81.50;;;;;;5025344;28;84566;-38
2023/02/03 03:01:26;;;;;;;;;;;2.60;81.50;;;;;;5025796;28;82054;-38
2023/02/03 03:03:51;;;;;;;;;;;2.60;81.50;;;;;;5026040;28;84357;-37
2023/02/03 03:06:20;;;;;;;;;;;2.60;81.50;;;;;;5027531;28;84555;-37
2023/02/03 03:08:57;;;;;;;;;;;2.50;81.40;;;;;;5025718;28;81988;-37
2023/02/03 03:11:24;;;;;;;;;;;2.60;81.50;;;;;;5024826;28;85449;-38
2023/02/03 03:13:51;;;;;;;;;;;2.50;81.40;;;;;;5025227;28;82111;-37
2023/02/03 03:16:21;;;;;;;;;;;2.50;81.40;;;;;;5025473;28;83354;-38
2023/02/03 03:18:50;;;;;;;;;;;2.50;81.40;;;;;;5025166;28;84713;-38
2023/02/03 03:21:19;;;;;;;;;;;2.50;81.40;;;;;;5025408;28;82116;-37
2023/02/03 03:23:46;;;;;;;;;;;2.50;81.40;;;;;;5025471;28;82376;-37
2023/02/03 03:26:26;;;;;;;;;;;2.50;81.40;;;;;;5025318;28;82697;-38
2023/02/03 03:29:04;;;;;;;;;;;2.50;81.40;;;;;;5028523;28;81225;-38
2023/02/03 03:31:30;;;;;;;;;;;2.50;81.40;;;;;;5025436;28;83068;-38
2023/02/03 03:33:55;;;;;;;;;;;2.50;81.40;;;;;;5025347;28;82082;-37
2023/02/03 03:36:21;;;;;;;;;;;2.50;81.30;;;;;;5024792;28;83792;-38
2023/02/03 03:38:53;;;;;;;;;;;2.50;81.30;;;;;;5024940;28;85074;-38
2023/02/03 03:41:34;;;;;;;;;;;2.50;81.30;;;;;;5025379;28;81988;-37
2023/02/03 03:44:01;;;;;;;;;;;2.50;81.40;;;;;;5029116;28;82228;-37
2023/02/03 03:46:30;;;;;;;;;;;2.50;81.30;;;;;;5028540;28;84420;-37
2023/02/03 03:48:57;;;;;;;;;;;2.50;81.40;;;;;;5028506;28;82036;-38
2023/02/03 03:51:45;;;;;;;;;;;2.50;81.40;;;;;;5030864;28;84023;-37
2023/02/03 03:54:11;;;;;;;;;;;2.50;81.50;;;;;;5029198;28;81445;-38
2023/02/03 03:56:52;;;;;;;;;;;2.50;81.40;;;;;;5028571;28;83113;-38
2023/02/03 03:59:19;;;;;;;;;;;2.50;81.40;;;;;;5028192;28;83653;-38
2023/02/03 04:01:46;;;;;;;;;;;2.50;81.30;;;;;;5027636;28;82929;-38
2023/02/03 04:04:12;;;;;;;;;;;2.50;81.40;;;;;;5028521;28;83447;-38
2023/02/03 04:06:38;;;;;;;;;;;2.40;81.50;;;;;;5027694;28;84656;-38
2023/02/03 04:09:04;;;;;;;;;;;2.40;81.60;;;;;;5028094;28;82038;-38
2023/02/03 04:14:13;;;;;;;;;;;2.40;81.40;;;;;;5030560;28;82254;-37
2023/02/03 04:16:39;;;;;;;;;;;2.40;81.40;;;;;;5028090;28;84043;-38
2023/02/03 04:19:04;;;;;;;;;;;2.40;81.40;;;;;;5028678;28;83738;-38
2023/02/03 04:21:30;;;;;;;;;;;2.40;81.50;;;;;;5028159;28;82048;-37
2023/02/03 04:23:55;;;;;;;;;;;2.40;81.40;;;;;;5028155;28;82374;-38
2023/02/03 04:26:21;;;;;;;;;;;2.40;81.40;;;;;;5027339;28;85132;-38
2023/02/03 04:28:47;;;;;;;;;;;2.40;81.50;;;;;;5028180;28;82058;-37
2023/02/03 04:31:12;;;;;;;;;;;2.40;81.50;;;;;;5028108;28;82416;-38
2023/02/03 04:33:38;;;;;;;;;;;2.40;81.50;;;;;;5027641;28;84561;-37
2023/02/03 04:36:03;;;;;;;;;;;2.40;81.40;;;;;;5030616;28;82038;-38
2023/02/03 04:38:29;;;;;;;;;;;2.40;81.50;;;;;;5027864;28;83130;-38
2023/02/03 04:40:54;;;;;;;;;;;2.40;81.50;;;;;;5027716;28;81889;-38
2023/02/03 04:43:20;;;;;;;;;;;2.40;81.40;;;;;;5028117;28;84002;-38
2023/02/03 04:45:45;;;;;;;;;;;2.40;81.40;;;;;;5027267;28;84642;-38
2023/02/03 04:48:11;;;;;;;;;;;2.40;81.40;;;;;;5027865;28;82203;-37
2023/02/03 04:50:36;;;;;;;;;;;2.40;81.40;;;;;;5027131;28;83540;-38
2023/02/03 04:53:02;;;;;;;;;;;2.40;81.40;;;;;;5026969;28;84758;-38
2023/02/03 04:55:27;;;;;;;;;;;2.40;81.40;;;;;;5030413;28;82035;-38
2023/02/03 04:57:57;;;;;;;;;;;2.40;81.50;;;;;;5027370;28;83745;-37
2023/02/03 05:00:23;;;;;;;;;;;2.40;81.40;;;;;;5027486;28;82059;-37
2023/02/03 05:02:48;;;;;;;;;;;2.40;81.40;;;;;;5027359;28;83826;-38
2023/02/03 05:05:14;;;;;;;;;;;2.40;81.40;;;;;;5026432;28;84898;-37
2023/02/03 05:07:39;;;;;;;;;;;2.30;81.40;;;;;;5027944;28;81316;-38
2023/02/03 05:10:05;;;;;;;;;;;2.30;81.60;;;;;;5027275;28;83531;-38
2023/02/03 05:12:30;;;;;;;;;;;2.30;81.50;;;;;;5027330;28;84352;-38
2023/02/03 05:14:56;;;;;;;;;;;2.30;81.40;;;;;;5026476;28;82915;-38
2023/02/03 05:17:23;;;;;;;;;;;2.30;81.60;;;;;;5029932;28;84684;-37
2023/02/03 05:19:48;;;;;;;;;;;2.30;81.40;;;;;;5027288;28;82095;-38
2023/02/03 05:22:14;;;;;;;;;;;2.30;81.50;;;;;;5027281;28;84058;-37
2023/02/03 05:24:39;;;;;;;;;;;2.30;81.50;;;;;;5026991;28;84575;-38
2023/02/03 05:27:05;;;;;;;;;;;2.30;81.60;;;;;;5027079;28;82046;-38
2023/02/03 05:29:30;;;;;;;;;;;2.30;81.50;;;;;;5027118;28;84511;-38
2023/02/03 05:31:56;;;;;;;;;;;2.30;81.50;;;;;;5027336;28;82320;-38
2023/02/03 05:34:21;;;;;;;;;;;2.30;81.50;;;;;;5027053;28;82126;-38
2023/02/03 05:36:47;;;;;;;;;;;2.30;81.60;;;;;;5027206;28;82539;-38
2023/02/03 05:39:12;;;;;;;;;;;2.30;81.50;;;;;;5028941;28;85654;-37
2023/02/03 05:41:53;;;;;;;;;;;2.30;81.40;;;;;;5026895;28;84942;-37
2023/02/03 05:44:19;;;;;;;;;;;2.30;81.40;;;;;;5026126;28;83946;-37
2023/02/03 05:46:45;;;;;;;;;;;2.30;81.50;;;;;;5026836;28;81835;-38
2023/02/03 05:49:10;;;;;;;;;;;2.30;81.50;;;;;;5027150;28;82214;-37
2023/02/03 05:51:36;;;;;;;;;;;2.30;81.60;;;;;;5026687;28;82902;-38
2023/02/03 05:54:02;;;;;;;;;;;2.30;81.30;;;;;;5026533;28;82229;-37
2023/02/03 05:56:27;;;;;;;;;;;2.30;81.30;;;;;;5027015;28;83875;-38
2023/02/03 05:58:53;;;;;;;;;;;2.30;81.40;;;;;;5026369;28;84391;-38
2023/02/03 06:01:19;;;;;;;;;;;2.30;81.40;;;;;;5029356;28;81954;-37
2023/02/03 06:03:45;;;;;;;;;;;2.30;81.50;;;;;;5025122;28;85613;-38
2023/02/03 06:06:10;;;;;;;;;;;2.30;81.40;;;;;;5025703;28;82048;-38
2023/02/03 06:08:36;;;;;;;;;;;2.30;81.40;;;;;;5026361;28;83930;-37
2023/02/03 06:11:01;;;;;;;;;;;2.30;81.40;;;;;;5026170;28;83426;-38
2023/02/03 06:13:27;;;;;;;;;;;2.30;81.50;;;;;;5026441;28;82091;-37
2023/02/03 06:15:53;;;;;;;;;;;2.30;81.40;;;;;;5026513;28;82411;-38
2023/02/03 06:18:18;;;;;;;;;;;2.30;81.40;;;;;;5026181;28;84345;-38
2023/02/03 06:20:44;;;;;;;;;;;2.30;81.30;;;;;;5026851;28;81043;-38
2023/02/03 06:23:09;;;;;;;;;;;2.20;81.30;;;;;;5029074;28;83339;-38
2023/02/03 06:25:35;;;;;;;;;;;2.30;81.30;;;;;;5026276;28;82195;-38
2023/02/03 06:28:00;;;;;;;;;;;2.20;81.40;;;;;;5025500;28;83902;-37
2023/02/03 06:30:26;;;;;;;;;;;2.20;81.40;;;;;;5025692;28;85534;-38
2023/02/03 06:32:51;;;;;;;;;;;2.20;81.30;;;;;;5026088;28;82150;-37
2023/02/03 06:35:17;;;;;;;;;;;2.20;81.40;;;;;;5026427;28;84057;-37
2023/02/03 06:37:43;;;;;;;;;;;2.20;81.30;;;;;;5026238;28;83151;-37
2023/02/03 06:40:09;;;;;;;;;;;2.20;81.40;;;;;;5026030;28;82072;-38
2023/02/03 06:42:34;;;;;;;;;;;2.20;81.30;;;;;;5025707;28;84199;-38
2023/02/03 06:45:00;;;;;;;;;;;2.30;81.30;;;;;;5029010;28;83386;-38
2023/02/03 06:47:25;;;;;;;;;;;2.30;81.20;;;;;;5025900;28;83300;-38
2023/02/03 06:49:51;;;;;;;;;;;2.30;81.30;;;;;;5025617;28;84861;-37
2023/02/03 06:52:17;;;;;;;;;;;2.20;81.20;;;;;;5025311;28;83121;-37
2023/02/03 06:54:42;;;;;;;;;;;2.20;81.20;;;;;;5025982;28;84401;-38
2023/02/03 06:57:08;;;;;;;;;;;2.20;81.30;;;;;;5025679;28;84334;-37
2023/02/03 06:59:33;;;;;;;;;;;2.20;81.40;;;;;;5025501;28;82136;-38
2023/02/03 07:01:58;;;;;;;;;;;2.20;81.20;;;;;;5025789;28;83711;-37
2023/02/03 07:04:27;;;;;;;;;;;2.20;81.10;;;;;;5028203;28;83687;-38
2023/02/03 07:06:52;;;;;;;;;;;2.20;81.10;;;;;;5025312;28;83892;-37
2023/02/03 07:09:18;;;;;;;;;;;2.20;81.00;;;;;;5025537;28;83787;-38
2023/02/03 07:11:43;;;;;;;;;;;2.30;81.00;;;;;;5025530;28;82023;-37
2023/02/03 07:14:09;;;;;;;;;;;2.30;81.10;;;;;;5025526;28;84024;-37
2023/02/03 07:16:36;;;;;;;;;;;2.20;81.00;;;;;;5026815;28;83998;-37
2023/02/03 07:19:02;;;;;;;;;;;2.30;81.00;;;;;;5029021;28;82075;-37
2023/02/03 07:21:27;;;;;;;;;;;2.20;81.10;;;;;;5028887;28;82978;-37
2023/02/03 07:23:53;;;;;;;;;;;2.20;81.20;;;;;;5028890;28;84494;-38
2023/02/03 07:26:21;;;;;;;;;;;2.20;81.10;;;;;;5031702;28;82102;-37
2023/02/03 07:28:47;;;;;;;;;;;2.20;81.00;;;;;;5028773;28;84614;-37
2023/02/03 07:31:13;;;;;;;;;;;2.20;80.90;;;;;;5028984;28;82025;-37
2023/02/03 07:33:39;;;;;;;;;;;2.20;81.00;;;;;;5029401;28;83035;-38
2023/02/03 07:36:05;;;;;;;;;;;2.20;80.90;;;;;;5028976;28;83050;-37
2023/02/03 07:38:31;;;;;;;;;;;2.20;80.90;;;;;;5028500;28;82012;-38
2023/02/03 07:40:56;;;;;;;;;;;2.20;80.90;;;;;;5028081;28;83724;-38
2023/02/03 07:43:22;;;;;;;;;;;2.20;80.90;;;;;;5028542;28;84425;-37
2023/02/03 07:45:47;;;;;;;;;;;2.20;81.00;;;;;;5028915;28;82068;-37
2023/02/03 07:48:13;;;;;;;;;;;2.20;80.90;;;;;;5031150;28;83965;-37
2023/02/03 07:50:38;;;;;;;;;;;2.20;80.90;;;;;;5028735;28;82102;-37
2023/02/03 07:53:04;;;;;;;;;;;2.20;80.90;;;;;;5028791;28;84169;-38
2023/02/03 07:55:30;;;;;;;;;;;2.20;80.90;;;;;;5024969;28;87964;-38
2023/02/03 07:57:56;;;;;;;;;;;2.20;81.10;;;;;;5025665;28;86246;-37
2023/02/03 08:00:22;;;;;;;;;;;2.20;81.00;;;;;;5024800;28;88085;-38
2023/02/03 08:02:47;;;;;;;;;;;2.20;81.60;;;;;;5024612;28;89140;-37
2023/02/03 08:05:13;;;;;;;;;;;2.20;81.00;;;;;;5023282;28;88053;-37
2023/02/03 08:07:39;;;;;;;;;;;2.20;81.00;;;;;;5025094;28;90011;-37
2023/02/03 08:10:05;;;;;;;;;;;2.20;80.90;;;;;;5027098;28;88820;-37
2023/02/03 08:12:30;;;;;;;;;;;2.20;80.90;;;;;;5024843;28;89901;-37
2023/02/03 08:14:56;;;;;;;;;;;2.20;80.90;;;;;;5024211;28;89232;-38
2023/02/03 08:17:21;;;;;;;;;;;2.20;81.00;;;;;;5024748;28;87118;-37
2023/02/03 08:19:47;;;;;;;;;;;2.20;81.00;;;;;;5024819;28;88619;-38
2023/02/03 08:22:15;;;;;;;;;;;2.20;81.00;;;;;;5024799;28;87711;-37
2023/02/03 08:24:50;;;;;;;;;;;2.20;80.90;;;;;;5024473;28;87029;-37
2023/02/03 08:27:16;;;;;;;;;;;2.20;80.80;;;;;;5023767;28;88889;-37
2023/02/03 08:29:42;;;;;;;;;;;2.30;80.80;;;;;;5023688;28;88096;-37
2023/02/03 08:32:09;;;;;;;;;;;2.30;80.80;;;;;;5027811;28;86974;-37
2023/02/03 08:34:34;;;;;;;;;;;2.20;80.70;;;;;;5024192;28;89539;-38
2023/02/03 08:37:00;;;;;;;;;;;2.30;80.80;;;;;;5024569;28;87005;-38
2023/02/03 08:39:25;;;;;;;;;;;2.30;80.70;;;;;;5024403;28;88940;-38
2023/02/03 08:41:51;;;;;;;;;;;2.30;80.80;;;;;;5024425;28;87910;-37
2023/02/03 08:44:18;;;;;;;;;;;2.20;80.80;;;;;;5024267;28;87060;-37
2023/02/03 08:46:44;;;;;;;;;;;2.30;80.90;;;;;;5024808;28;87774;-38
2023/02/03 08:49:10;;;;;;;;;;;2.30;80.80;;;;;;5024040;28;87887;-38
2023/02/03 08:51:36;;;;;;;;;;;2.30;80.90;;;;;;5024311;28;87067;-38
2023/02/03 08:54:01;;;;;;;;;;;2.30;80.70;;;;;;5026245;28;89072;-38
2023/02/03 08:56:27;;;;;;;;;;;2.30;80.80;;;;;;5024319;28;87090;-37
2023/02/03 08:58:53;;;;;;;;;;;2.30;80.90;;;;;;5024185;28;87400;-38
2023/02/03 09:01:19;;;;;;;;;;;2.30;80.90;;;;;;5023940;28;89532;-37
2023/02/03 09:03:44;;;;;;;;;;;2.20;81.10;;;;;;5024041;28;86777;-38
2023/02/03 09:06:15;;;;;;;;;;;2.30;81.00;;;;;;5023590;28;88024;-38
2023/02/03 09:08:45;;;;;;;;;;;2.30;81.00;;;;;;5023668;28;89893;-38
2023/02/03 09:11:15;;;;;;;;;;;2.30;80.80;;;;;;5024392;28;86298;-38
2023/02/03 09:13:44;;;;;;;;;;;2.30;80.80;;;;;;5026527;28;88201;-38
2023/02/03 09:16:11;;;;;;;;;;;2.20;81.00;;;;;;5023794;28;87107;-37
2023/02/03 09:18:36;;;;;;;;;;;2.30;81.00;;;;;;5023194;28;88099;-38
2023/02/03 09:21:03;;;;;;;;;;;2.30;81.00;;;;;;5023500;28;89461;-38
2023/02/03 09:23:28;;;;;;;;;;;2.30;81.00;;;;;;5023708;28;87159;-37
2023/02/03 09:25:54;;;;;;;;;;;2.30;80.90;;;;;;5023776;28;89016;-38
2023/02/03 09:28:19;;;;;;;;;;;2.30;81.00;;;;;;5023650;28;87978;-37
2023/02/03 09:30:46;;;;;;;;;;;2.30;80.90;;;;;;5023950;28;87074;-38
2023/02/03 09:33:11;;;;;;;;;;;2.30;81.00;;;;;;5023525;28;88919;-38
2023/02/03 09:35:37;;;;;;;;;;;2.30;81.00;;;;;;5026767;28;87348;-38
2023/02/03 09:38:03;;;;;;;;;;;2.30;81.00;;;;;;5023606;28;87821;-38
2023/02/03 09:40:38;;;;;;;;;;;2.30;81.00;;;;;;5023140;28;88030;-38
2023/02/03 09:43:06;;;;;;;;;;;2.30;80.90;;;;;;5023262;28;87853;-38
2023/02/03 09:45:32;;;;;;;;;;;2.30;80.90;;;;;;5023586;28;88329;-37
2023/02/03 09:48:02;;;;;;;;;;;2.30;80.80;;;;;;5023093;28;89509;-38
2023/02/03 09:50:29;;;;;;;;;;;2.30;80.80;;;;;;5023495;28;87096;-37
2023/02/03 09:52:55;;;;;;;;;;;2.30;80.80;;;;;;5023399;28;88635;-37
2023/02/03 09:55:29;;;;;;;;;;;2.30;80.70;;;;;;5022858;28;88615;-38
2023/02/03 09:58:07;;;;;;;;;;;2.30;80.80;;;;;;5026124;28;87132;-38
2023/02/03 10:00:35;;;;;;;;;;;2.30;80.80;;;;;;5023449;28;88316;-38
2023/02/03 10:03:03;;;;;;;;;;;2.30;80.80;;;;;;5023160;28;87179;-38
2023/02/03 10:05:49;;;;;;;;;;;2.30;80.90;;;;;;5022432;28;88656;-38
2023/02/03 10:08:33;;;;;;;;;;;2.30;80.90;;;;;;5021613;28;90146;-38
2023/02/03 10:11:18;;;;;;;;;;;2.30;80.80;;;;;;5023070;28;87168;-38
2023/02/03 10:13:49;;;;;;;;;;;2.30;81.10;;;;;;5023063;28;88635;-38
2023/02/03 10:16:35;;;;;;;;;;;2.30;81.10;;;;;;5022619;28;89458;-38
2023/02/03 10:19:06;;;;;;;;;;;2.30;81.10;;;;;;5022395;28;86997;-38
2023/02/03 10:21:34;;;;;;;;;;;2.30;81.10;;;;;;5025336;28;89450;-37
2023/02/03 10:24:00;;;;;;;;;;;2.30;81.00;;;;;;5022702;28;87120;-38
2023/02/03 10:26:27;;;;;;;;;;;2.30;80.90;;;;;;5023439;28;87347;-38
2023/02/03 10:28:54;;;;;;;;;;;2.30;80.80;;;;;;5022254;28;89503;-37
2023/02/03 10:31:22;;;;;;;;;;;2.40;80.90;;;;;;5022986;28;87084;-38
2023/02/03 10:33:48;;;;;;;;;;;2.40;80.90;;;;;;5021996;28;89004;-38
2023/02/03 10:36:17;;;;;;;;;;;2.40;80.70;;;;;;5022162;28;89337;-38
2023/02/03 10:39:01;;;;;;;;;;;2.30;80.50;;;;;;5022688;28;87168;-38
2023/02/03 10:41:28;;;;;;;;;;;2.30;80.40;;;;;;5022649;28;89348;-38
2023/02/03 10:43:54;;;;;;;;;;;2.30;80.50;;;;;;5025096;28;88872;-38
2023/02/03 10:46:27;;;;;;;;;;;2.30;80.90;;;;;;5022425;28;87959;-38
2023/02/03 10:48:53;;;;;;;;;;;2.30;80.60;;;;;;5022193;28;89449;-38
2023/02/03 10:51:21;;;;;;;;;;;2.30;81.30;;;;;;5022755;28;86698;-38
2023/02/03 10:53:47;;;;;;;;;;;2.40;80.70;;;;;;5022357;28;87163;-38
2023/02/03 10:56:13;;;;;;;;;;;2.30;80.60;;;;;;5022092;28;88521;-38
2023/02/03 10:58:45;;;;;;;;;;;2.30;80.70;;;;;;5022048;28;88069;-38
2023/02/03 11:01:12;;;;;;;;;;;2.40;80.70;;;;;;5022591;28;89797;-38
2023/02/03 11:03:42;;;;;;;;;;;2.40;80.70;;;;;;5021768;28;89648;-38
2023/02/03 11:06:12;;;;;;;;;;;2.40;80.60;;;;;;5024444;28;86897;-38
2023/02/03 11:08:39;;;;;;;;;;;2.40;80.60;;;;;;5021946;28;89420;-38
2023/02/03 11:11:06;;;;;;;;;;;2.40;80.70;;;;;;5022198;28;87475;-37
2023/02/03 11:13:32;;;;;;;;;;;2.40;80.80;;;;;;5022472;28;88588;-38
2023/02/03 11:16:06;;;;;;;;;;;2.40;80.60;;;;;;5022401;28;88700;-38
2023/02/03 11:18:50;;;;;;;;;;;2.30;80.50;;;;;;5022100;28;87183;-37
2023/02/03 11:21:21;;;;;;;;;;;2.40;80.70;;;;;;5021969;28;88934;-37
2023/02/03 11:24:00;;;;;;;;;;;2.40;80.90;;;;;;5021008;28;90285;-38
2023/02/03 11:26:28;;;;;;;;;;;2.40;81.00;;;;;;5024839;28;87164;-38
2023/02/03 11:28:56;;;;;;;;;;;2.40;80.80;;;;;;5021672;28;89541;-38
2023/02/03 11:31:26;;;;;;;;;;;2.40;81.00;;;;;;5021942;28;87368;-38
2023/02/03 11:33:56;;;;;;;;;;;2.40;81.00;;;;;;5022210;28;87470;-38
2023/02/03 11:36:25;;;;;;;;;;;2.40;81.10;;;;;;5021633;28;89509;-38
2023/02/03 11:38:50;;;;;;;;;;;2.40;81.10;;;;;;5021805;28;87088;-38
2023/02/03 11:41:17;;;;;;;;;;;2.40;81.30;;;;;;5022308;28;88778;-38
2023/02/03 11:43:43;;;;;;;;;;;2.40;81.50;;;;;;5021612;28;88034;-38
2023/02/03 11:46:09;;;;;;;;;;;2.40;81.60;;;;;;5021468;28;87155;-37
2023/02/03 11:48:35;;;;;;;;;;;2.40;81.60;;;;;;5024015;28;87918;-38
2023/02/03 11:51:19;;;;;;;;;;;2.40;81.40;;;;;;5021879;28;86986;-38
2023/02/03 11:53:45;;;;;;;;;;;2.40;81.40;;;;;;5021820;28;88671;-38
2023/02/03 11:56:10;;;;;;;;;;;2.40;81.60;;;;;;5021257;28;89389;-38
2023/02/03 11:58:36;;;;;;;;;;;2.40;81.60;;;;;;5021336;28;87154;-37
2023/02/03 12:01:11;;;;;;;;;;;2.40;81.60;;;;;;5021837;28;87928;-38
2023/02/03 12:03:36;;;;;;;;;;;2.50;81.40;;;;;;5023685;28;87459;-38
2023/02/03 12:06:14;;;;;;;;;;;2.40;81.40;;;;;;5025109;28;86387;-38
2023/02/03 12:09:06;;;;;;;;;;;2.40;81.10;;;;;;5024868;28;87373;-37
2023/02/03 12:11:51;;;;;;;;;;;2.50;80.40;;;;;;5027878;28;88085;-38
2023/02/03 12:14:27;;;;;;;;;;;2.50;80.30;;;;;;5023870;28;89085;-37
2023/02/03 12:17:03;;;;;;;;;;;2.50;80.80;;;;;;5024509;28;89343;-37
2023/02/03 12:19:36;;;;;;;;;;;2.50;81.10;;;;;;5024500;28;87007;-38
2023/02/03 12:22:01;;;;;;;;;;;2.50;80.80;;;;;;5025421;28;87071;-38
2023/02/03 12:24:35;;;;;;;;;;;2.50;81.10;;;;;;5024663;28;88011;-38
2023/02/03 12:27:12;;;;;;;;;;;2.50;80.70;;;;;;5024825;28;87069;-38
2023/02/03 12:29:46;;;;;;;;;;;2.50;80.80;;;;;;5024702;28;87956;-38
2023/02/03 12:32:12;;;;;;;;;;;2.50;80.50;;;;;;5025003;28;88893;-38
2023/02/03 12:34:51;;;;;;;;;;;2.50;80.00;;;;;;5027476;28;87115;-38
2023/02/03 12:37:26;;;;;;;;;;;2.50;79.80;;;;;;5024106;28;89641;-38
2023/02/03 12:39:52;;;;;;;;;;;2.50;80.10;;;;;;5023834;28;88171;-38
2023/02/03 12:42:20;;;;;;;;;;;2.50;79.70;;;;;;5024378;28;89536;-37
2023/02/03 12:44:49;;;;;;;;;;;2.50;80.30;;;;;;5023880;28;89525;-37
2023/02/03 12:47:17;;;;;;;;;;;2.50;80.00;;;;;;5024451;28;86969;-38
2023/02/03 12:49:47;;;;;;;;;;;2.50;81.10;;;;;;5024583;28;88967;-38
2023/02/03 12:52:25;;;;;;;;;;;2.50;80.80;;;;;;5024269;28;89231;-38
2023/02/03 12:54:59;;;;;;;;;;;2.50;80.40;;;;;;5024026;28;86982;-38
2023/02/03 12:57:28;;;;;;;;;;;2.50;80.00;;;;;;5027383;28;89027;-38
2023/02/03 12:59:59;;;;;;;;;;;2.60;80.50;;;;;;5024306;28;87029;-38
2023/02/03 13:02:27;;;;;;;;;;;2.60;80.20;;;;;;5024248;28;89083;-37
2023/02/03 13:04:59;;;;;;;;;;;2.60;80.60;;;;;;5023004;28;89513;-37
2023/02/03 13:07:25;;;;;;;;;;;2.60;80.00;;;;;;5024168;28;87125;-38
2023/02/03 13:09:56;;;;;;;;;;;2.60;79.90;;;;;;5023724;28;89003;-38
2023/02/03 13:12:29;;;;;;;;;;;2.60;79.00;;;;;;5023608;28;89189;-38
2023/02/03 13:15:14;;;;;;;;;;;2.60;80.50;;;;;;5023756;28;86913;-38
2023/02/03 13:17:57;;;;;;;;;;;2.60;79.70;;;;;;5026522;28;87595;-37
2023/02/03 13:20:24;;;;;;;;;;;2.60;79.80;;;;;;5023820;28;86992;-37
2023/02/03 13:22:50;;;;;;;;;;;2.60;79.70;;;;;;5024477;28;87479;-38
2023/02/03 13:25:20;;;;;;;;;;;2.60;79.40;;;;;;5023422;28;89460;-38
2023/02/03 13:27:46;;;;;;;;;;;2.60;80.10;;;;;;5023658;28;87128;-38
2023/02/03 13:30:24;;;;;;;;;;;2.60;79.90;;;;;;5023050;28;88746;-38
2023/02/03 13:32:49;;;;;;;;;;;2.60;79.40;;;;;;5022873;28;89305;-37
2023/02/03 13:35:18;;;;;;;;;;;2.60;79.90;;;;;;5023826;28;87103;-38
2023/02/03 13:38:01;;;;;;;;;;;2.70;79.50;;;;;;5023825;28;87418;-38
2023/02/03 13:40:27;;;;;;;;;;;2.60;79.40;;;;;;5026144;28;89351;-37
2023/02/03 13:42:54;;;;;;;;;;;2.60;79.60;;;;;;5023691;28;87340;-38
2023/02/03 13:45:31;;;;;;;;;;;2.60;79.90;;;;;;5022918;28;87998;-38
2023/02/03 13:48:07;;;;;;;;;;;2.60;79.60;;;;;;5023946;28;86368;-38
2023/02/03 13:50:32;;;;;;;;;;;2.60;79.80;;;;;;5023326;28;88122;-38
2023/02/03 13:53:00;;;;;;;;;;;2.60;80.00;;;;;;5022995;28;88066;-38
2023/02/03 13:55:34;;;;;;;;;;;2.60;79.90;;;;;;5022727;28;88029;-38
2023/02/03 13:58:00;;;;;;;;;;;2.70;79.90;;;;;;5022867;28;88758;-38
2023/02/03 14:00:44;;;;;;;;;;;2.60;78.70;;;;;;5022843;28;89431;-39
2023/02/03 14:03:18;;;;;;;;;;;2.60;80.10;;;;;;5026079;28;87441;-38
2023/02/03 14:05:48;;;;;;;;;;;2.60;80.70;;;;;;5021926;28;88411;-37
2023/02/03 14:08:25;;;;;;;;;;;2.50;82.50;;;;;;5023007;28;87093;-38
2023/02/03 14:11:09;;;;;;;;;;;2.60;82.10;;;;;;5022454;28;88854;-38
2023/02/03 14:13:35;;;;;;;;;;;2.60;80.30;;;;;;5021888;28;90197;-37
2023/02/03 14:16:20;;;;;;;;;;;2.70;78.50;;;;;;5022893;28;87113;-37
2023/02/03 14:18:46;;;;;;;;;;;2.80;78.80;;;;;;5023017;28;89325;-38
2023/02/03 14:21:15;;;;;;;;;;;2.80;79.10;;;;;;5022290;28;88628;-38
2023/02/03 14:23:45;;;;;;;;;;;2.80;79.30;;;;;;5022973;28;87034;-37
2023/02/03 14:26:29;;;;;;;;;;;2.80;79.50;;;;;;5024634;28;88891;-37
2023/02/03 14:28:54;;;;;;;;;;;2.80;79.60;;;;;;5022765;28;87213;-37
2023/02/03 14:31:21;;;;;;;;;;;2.80;79.60;;;;;;5022585;28;88819;-38
2023/02/03 14:33:46;;;;;;;;;;;2.80;79.60;;;;;;5022376;28;89565;-38
2023/02/03 14:36:31;;;;;;;;;;;2.80;79.60;;;;;;5022862;28;87113;-37
2023/02/03 14:38:58;;;;;;;;;;;2.80;79.70;;;;;;5022986;28;88614;-37
2023/02/03 14:41:28;;;;;;;;;;;2.80;79.60;;;;;;5022203;28;89452;-37